Time;durP1;ratioP1;P1;durP2;ratioP2;P2;SDS_P1;SDS_P2;PMS_P1;PMS_P2;Temp;Humidity;BMP_temperature;BMP_pressure;BME280_temperature;BME280_humidity;BME280_pressure;Samples;Min_cycle;Max_cycle;Signal;HPM_P1;HPM_P2
2022/11/05 00:09:32;;;;;;;12.73;3.85;;;;;;;;;;5113940;28;20055;-71
2022/11/05 00:17:29;;;;;;;13.50;3.92;;;;;;;;;;5107605;28;20039;-71
2022/11/05 00:19:55;;;;;;;11.02;3.80;;;;;;;;;;5111451;28;20517;-72
2022/11/05 00:25:18;;;;;;;11.07;4.10;;;;;;;;;;5111187;28;20047;-70
2022/11/05 00:27:45;;;;;;;9.63;3.97;;;;;;;;;;5111611;28;20079;-72
2022/11/05 00:30:12;;;;;;;11.65;3.75;;;;;;;;;;5087916;28;20085;-73
2022/11/05 00:32:39;;;;;;;11.68;4.05;;;;;;;;;;5111393;28;20082;-72
2022/11/05 00:35:06;;;;;;;14.55;4.43;;;;;;;;;;5111553;28;20120;-72
2022/11/05 00:37:32;;;;;;;14.52;4.22;;;;;;;;;;5112419;28;20430;-72
2022/11/05 00:39:58;;;;;;;12.07;4.35;;;;;;;;;;5110581;28;20477;-71
2022/11/05 00:45:09;;;;;;;12.90;3.95;;;;;;;;;;5110742;28;20055;-72
2022/11/05 00:50:21;;;;;;;11.80;3.55;;;;;;;;;;5113016;28;20509;-72
2022/11/05 00:52:54;;;;;;;10.90;2.95;;;;;;;;;;5109969;28;20040;-72
2022/11/05 00:55:20;;;;;;;10.10;2.78;;;;;;;;;;5107057;28;20044;-72
2022/11/05 00:57:46;;;;;;;8.63;2.63;;;;;;;;;;5093638;28;20185;-72
2022/11/05 01:00:13;;;;;;;9.25;2.50;;;;;;;;;;5111961;28;20050;-72
2022/11/05 01:02:39;;;;;;;7.97;2.05;;;;;;;;;;5111269;28;20047;-72
2022/11/05 01:05:05;;;;;;;8.95;1.70;;;;;;;;;;5110151;28;20052;-71
2022/11/05 01:07:31;;;;;;;8.32;1.88;;;;;;;;;;5109377;28;20052;-71
2022/11/05 01:09:57;;;;;;;9.60;2.05;;;;;;;;;;5092933;28;20055;-71
2022/11/05 01:12:23;;;;;;;8.80;2.00;;;;;;;;;;5109340;28;20043;-73
2022/11/05 01:14:49;;;;;;;8.48;1.77;;;;;;;;;;5107352;28;20096;-72
2022/11/05 01:17:15;;;;;;;7.40;1.90;;;;;;;;;;5109302;28;20047;-72
2022/11/05 01:19:41;;;;;;;6.57;1.80;;;;;;;;;;5111014;28;20040;-72
2022/11/05 01:22:07;;;;;;;8.63;1.92;;;;;;;;;;5109895;28;20039;-72
2022/11/05 01:24:34;;;;;;;8.15;1.65;;;;;;;;;;5110835;28;20043;-72
2022/11/05 01:27:00;;;;;;;7.10;1.77;;;;;;;;;;5112183;28;20040;-73
2022/11/05 01:29:26;;;;;;;10.93;1.73;;;;;;;;;;5093370;28;20051;-73
2022/11/05 01:31:52;;;;;;;10.38;1.90;;;;;;;;;;5109917;28;20039;-72
2022/11/05 01:34:18;;;;;;;9.82;2.30;;;;;;;;;;5111184;28;20050;-73
2022/11/05 01:36:44;;;;;;;10.70;2.60;;;;;;;;;;5110644;28;20088;-71
2022/11/05 01:39:10;;;;;;;10.60;2.28;;;;;;;;;;5110448;28;20043;-71
2022/11/05 01:41:36;;;;;;;9.30;2.55;;;;;;;;;;5111656;28;20071;-71
2022/11/05 01:44:02;;;;;;;10.68;2.67;;;;;;;;;;5107547;28;20040;-71
2022/11/05 01:46:42;;;;;;;15.57;3.03;;;;;;;;;;5108236;28;20382;-71
2022/11/05 01:49:17;;;;;;;13.77;3.30;;;;;;;;;;5110414;28;20043;-71
2022/11/05 01:51:44;;;;;;;11.85;3.38;;;;;;;;;;5111784;28;20794;-72
2022/11/05 01:54:12;;;;;;;10.73;3.58;;;;;;;;;;5110323;28;20048;-72
2022/11/05 01:56:38;;;;;;;8.35;3.13;;;;;;;;;;5111193;28;20105;-72
2022/11/05 01:59:11;;;;;;;8.27;3.13;;;;;;;;;;5110449;28;20040;-72
2022/11/05 02:01:37;;;;;;;12.50;3.58;;;;;;;;;;5111569;28;20043;-73
2022/11/05 02:04:04;;;;;;;11.05;3.50;;;;;;;;;;5109242;28;20100;-72
2022/11/05 02:06:32;;;;;;;15.35;3.80;;;;;;;;;;5110589;28;20397;-73
2022/11/05 02:09:01;;;;;;;9.75;3.38;;;;;;;;;;5108323;28;20048;-72
2022/11/05 02:11:28;;;;;;;17.05;4.00;;;;;;;;;;5110216;28;20039;-72
2022/11/05 02:13:54;;;;;;;10.25;3.80;;;;;;;;;;5108254;28;20047;-72
2022/11/05 02:16:39;;;;;;;11.00;3.53;;;;;;;;;;5108492;28;20096;-73
2022/11/05 02:19:11;;;;;;;12.43;3.58;;;;;;;;;;5109337;28;20054;-72
2022/11/05 02:21:37;;;;;;;10.07;3.50;;;;;;;;;;5112533;28;20140;-72
2022/11/05 02:24:15;;;;;;;12.98;3.75;;;;;;;;;;5107935;28;20521;-72
2022/11/05 02:26:49;;;;;;;11.90;3.67;;;;;;;;;;5108677;28;20493;-72
2022/11/05 02:29:29;;;;;;;13.10;3.60;;;;;;;;;;5081822;28;20047;-72
2022/11/05 02:32:09;;;;;;;13.93;3.20;;;;;;;;;;5111948;28;20409;-71
2022/11/05 02:34:47;;;;;;;14.65;3.55;;;;;;;;;;5108383;28;20044;-72
2022/11/05 02:37:22;;;;;;;10.77;3.25;;;;;;;;;;5114194;28;20056;-72
2022/11/05 02:40:01;;;;;;;12.52;3.38;;;;;;;;;;5113750;28;20063;-72
2022/11/05 02:42:35;;;;;;;13.73;3.88;;;;;;;;;;5113622;28;20032;-72
2022/11/05 02:45:10;;;;;;;12.85;3.50;;;;;;;;;;5090444;28;20043;-71
2022/11/05 02:47:42;;;;;;;11.40;3.42;;;;;;;;;;5112483;28;20074;-73
2022/11/05 02:50:19;;;;;;;13.48;3.60;;;;;;;;;;5112142;28;20358;-71
2022/11/05 02:52:46;;;;;;;14.20;3.88;;;;;;;;;;5115537;28;20047;-71
2022/11/05 02:55:32;;;;;;;10.10;3.30;;;;;;;;;;5113314;28;20056;-71
2022/11/05 02:58:01;;;;;;;12.70;3.65;;;;;;;;;;5113160;28;20079;-71
2022/11/05 03:00:38;;;;;;;11.13;3.50;;;;;;;;;;5112075;28;20051;-72
2022/11/05 03:03:05;;;;;;;12.20;3.60;;;;;;;;;;5113901;28;20120;-72
2022/11/05 03:05:38;;;;;;;10.63;3.70;;;;;;;;;;5113909;28;20084;-72
2022/11/05 03:08:10;;;;;;;12.50;3.80;;;;;;;;;;5109193;28;20035;-72
2022/11/05 03:10:36;;;;;;;;;;;;;;;;;;5111728;28;20496;-73
2022/11/05 03:13:22;;;;;;;10.93;3.70;;;;;;;;;;5114127;28;19927;-72
2022/11/05 03:15:50;;;;;;;12.45;3.50;;;;;;;;;;5112627;28;20047;-72
2022/11/05 03:18:26;;;;;;;16.50;3.63;;;;;;;;;;5110192;28;20097;-71
2022/11/05 03:21:01;;;;;;;10.57;4.03;;;;;;;;;;5114169;28;20044;-71
2022/11/05 03:23:30;;;;;;;13.90;3.90;;;;;;;;;;5113716;28;20036;-71
2022/11/05 03:26:01;;;;;;;8.73;4.05;;;;;;;;;;5113194;28;20043;-71
2022/11/05 03:28:30;;;;;;;14.35;4.03;;;;;;;;;;5112551;28;20104;-71
2022/11/05 03:30:57;;;;;;;14.15;4.00;;;;;;;;;;5094258;28;20378;-72
2022/11/05 03:33:28;;;;;;;13.45;4.03;;;;;;;;;;5112367;28;20043;-71
2022/11/05 03:35:56;;;;;;;10.32;4.22;;;;;;;;;;5113087;28;20043;-71
2022/11/05 03:38:25;;;;;;;12.45;4.25;;;;;;;;;;5113460;28;20047;-72
2022/11/05 03:40:52;;;;;;;12.50;4.00;;;;;;;;;;5103436;28;20047;-71
2022/11/05 03:43:20;;;;;;;9.85;4.15;;;;;;;;;;5113900;28;20400;-72
2022/11/05 03:46:09;;;;;;;9.93;3.92;;;;;;;;;;5111999;28;20051;-71
2022/11/05 03:48:38;;;;;;;10.38;3.90;;;;;;;;;;5109407;28;20043;-71
2022/11/05 03:51:28;;;;;;;13.65;4.30;;;;;;;;;;5111313;28;20050;-71
2022/11/05 03:53:58;;;;;;;11.15;3.97;;;;;;;;;;5031344;28;20557;-72
2022/11/05 03:56:37;;;;;;;12.63;4.30;;;;;;;;;;5030411;28;20050;-72
2022/11/05 03:59:04;;;;;;;11.90;4.28;;;;;;;;;;5029988;28;20056;-72
2022/11/05 04:01:30;;;;;;;11.07;3.92;;;;;;;;;;5003967;28;20190;-72
2022/11/05 04:03:56;;;;;;;13.55;4.43;;;;;;;;;;5013088;28;21069;-72
2022/11/05 04:14:38;;;;;;;11.68;4.25;;;;;;;;;;5028789;28;20045;-71
2022/11/05 04:17:10;;;;;;;12.00;3.97;;;;;;;;;;5028274;28;20116;-72
2022/11/05 04:25:06;;;;;;;15.73;4.53;;;;;;;;;;5029866;28;20053;-72
2022/11/05 04:27:32;;;;;;;12.85;4.20;;;;;;;;;;5029974;28;20602;-72
2022/11/05 04:32:43;;;;;;;8.20;4.30;;;;;;;;;;5111559;28;20055;-72
2022/11/05 04:35:09;;;;;;;10.63;4.40;;;;;;;;;;5112621;28;20089;-73
2022/11/05 04:37:35;;;;;;;9.85;3.95;;;;;;;;;;5112118;28;20055;-72
2022/11/05 04:40:01;;;;;;;9.15;4.30;;;;;;;;;;5093058;28;20040;-72
2022/11/05 04:42:28;;;;;;;10.82;4.32;;;;;;;;;;5094014;28;20412;-72
2022/11/05 04:44:54;;;;;;;11.85;4.20;;;;;;;;;;5109484;28;20523;-72
2022/11/05 04:47:20;;;;;;;12.63;4.68;;;;;;;;;;5112693;28;20066;-71
2022/11/05 04:49:46;;;;;;;14.38;4.55;;;;;;;;;;5109636;28;20054;-72
2022/11/05 04:52:12;;;;;;;9.18;4.10;;;;;;;;;;5093401;28;20047;-72
2022/11/05 04:54:38;;;;;;;13.07;4.00;;;;;;;;;;5110819;28;20044;-72
2022/11/05 04:57:04;;;;;;;10.23;4.18;;;;;;;;;;5112214;28;20044;-72
2022/11/05 04:59:30;;;;;;;12.68;4.30;;;;;;;;;;5108444;28;20059;-73
2022/11/05 05:01:56;;;;;;;15.30;4.30;;;;;;;;;;5112732;28;20089;-72
2022/11/05 05:04:22;;;;;;;11.07;4.28;;;;;;;;;;5110199;28;20052;-72
2022/11/05 05:06:48;;;;;;;15.38;4.38;;;;;;;;;;5108151;28;20448;-71
2022/11/05 05:09:14;;;;;;;10.90;4.30;;;;;;;;;;5110679;28;20055;-72
2022/11/05 05:11:40;;;;;;;13.68;4.35;;;;;;;;;;5111147;28;20071;-71
2022/11/05 05:14:06;;;;;;;13.77;4.65;;;;;;;;;;5110036;28;20473;-72
2022/11/05 05:16:32;;;;;;;10.07;3.97;;;;;;;;;;5107905;28;20040;-72
2022/11/05 05:18:58;;;;;;;11.57;4.45;;;;;;;;;;5109572;28;20047;-71
2022/11/05 05:21:40;;;;;;;12.70;4.43;;;;;;;;;;5100116;28;20051;-72
2022/11/05 05:24:10;;;;;;;10.82;4.28;;;;;;;;;;5112180;28;20071;-72
2022/11/05 05:26:38;;;;;;;8.97;4.00;;;;;;;;;;5108674;28;20043;-72
2022/11/05 05:29:05;;;;;;;13.68;4.35;;;;;;;;;;5109762;28;20305;-71
2022/11/05 05:31:31;;;;;;;9.95;4.45;;;;;;;;;;5110585;28;20046;-71
2022/11/05 05:33:57;;;;;;;10.80;4.30;;;;;;;;;;5112564;28;20044;-72
2022/11/05 05:36:23;;;;;;;10.55;4.18;;;;;;;;;;5107282;28;20044;-72
2022/11/05 05:38:49;;;;;;;16.30;4.55;;;;;;;;;;5092795;28;20478;-72
2022/11/05 05:41:16;;;;;;;11.73;4.30;;;;;;;;;;5111713;28;20055;-73
2022/11/05 05:43:42;;;;;;;11.35;4.40;;;;;;;;;;5113332;28;20048;-72
2022/11/05 05:46:10;;;;;;;8.23;4.03;;;;;;;;;;5108166;28;20048;-72
2022/11/05 05:48:36;;;;;;;11.40;4.55;;;;;;;;;;5109245;28;20046;-73
2022/11/05 05:51:06;;;;;;;14.38;4.90;;;;;;;;;;5109359;28;20053;-72
2022/11/05 05:53:32;;;;;;;13.75;5.20;;;;;;;;;;5112573;28;20089;-72
2022/11/05 05:55:59;;;;;;;12.25;4.63;;;;;;;;;;5110552;28;20035;-72
2022/11/05 05:58:25;;;;;;;11.25;4.80;;;;;;;;;;5109186;28;20054;-72
2022/11/05 06:00:52;;;;;;;10.05;4.38;;;;;;;;;;5111561;28;20043;-72
2022/11/05 06:03:18;;;;;;;12.23;4.43;;;;;;;;;;5111832;28;20043;-72
2022/11/05 06:05:44;;;;;;;9.88;4.47;;;;;;;;;;5109494;28;20067;-72
2022/11/05 06:08:10;;;;;;;13.07;4.75;;;;;;;;;;5095523;28;20050;-71
2022/11/05 06:10:36;;;;;;;11.20;4.30;;;;;;;;;;5094286;28;20051;-72
2022/11/05 06:13:02;;;;;;;12.38;4.45;;;;;;;;;;5114917;28;20044;-72
2022/11/05 06:15:28;;;;;;;11.48;4.68;;;;;;;;;;5112725;28;20046;-72
2022/11/05 06:17:55;;;;;;;9.82;4.10;;;;;;;;;;5112461;28;20055;-72
2022/11/05 06:20:21;;;;;;;10.27;4.32;;;;;;;;;;5110457;28;20148;-72
2022/11/05 06:22:56;;;;;;;11.35;4.35;;;;;;;;;;5114844;28;20044;-73
2022/11/05 06:25:23;;;;;;;9.52;4.40;;;;;;;;;;5094409;28;20044;-72
2022/11/05 06:27:49;;;;;;;13.50;4.60;;;;;;;;;;5095867;28;20056;-72
2022/11/05 06:30:16;;;;;;;12.05;4.40;;;;;;;;;;5077674;28;20059;-72
2022/11/05 06:32:42;;;;;;;8.68;4.10;;;;;;;;;;5106011;28;20099;-72
2022/11/05 06:35:08;;;;;;;12.20;4.50;;;;;;;;;;5105238;28;20180;-72
2022/11/05 06:37:34;;;;;;;12.98;4.53;;;;;;;;;;5106686;28;20048;-72
2022/11/05 06:40:00;;;;;;;10.55;4.70;;;;;;;;;;5110151;28;20142;-71
2022/11/05 06:42:26;;;;;;;8.95;4.28;;;;;;;;;;5107881;28;20119;-72
2022/11/05 06:44:52;;;;;;;15.00;4.53;;;;;;;;;;5106796;28;20064;-71
2022/11/05 06:47:19;;;;;;;12.27;4.82;;;;;;;;;;5106288;28;20039;-71
2022/11/05 06:49:45;;;;;;;10.82;4.65;;;;;;;;;;5107127;28;20046;-71
2022/11/05 06:52:12;;;;;;;11.57;4.57;;;;;;;;;;5108829;28;20048;-71
2022/11/05 06:54:38;;;;;;;9.73;4.70;;;;;;;;;;5107432;28;20448;-72
2022/11/05 06:57:05;;;;;;;13.25;5.25;;;;;;;;;;5109184;28;20067;-71
2022/11/05 06:59:31;;;;;;;10.40;4.72;;;;;;;;;;5107162;28;20173;-71
2022/11/05 07:01:57;;;;;;;19.65;4.63;;;;;;;;;;5110503;28;20048;-71
2022/11/05 07:04:23;;;;;;;10.10;4.90;;;;;;;;;;5111155;28;20055;-71
2022/11/05 07:06:49;;;;;;;12.85;4.90;;;;;;;;;;5111907;28;20039;-71
2022/11/05 07:09:15;;;;;;;14.63;5.28;;;;;;;;;;5109566;28;20046;-71
2022/11/05 07:11:41;;;;;;;11.90;5.00;;;;;;;;;;5110871;28;20067;-72
2022/11/05 07:14:07;;;;;;;14.45;5.63;;;;;;;;;;5111775;28;20047;-72
2022/11/05 07:16:33;;;;;;;10.73;5.60;;;;;;;;;;5109161;28;20047;-72
2022/11/05 07:18:59;;;;;;;10.00;5.30;;;;;;;;;;5113437;28;20493;-72
2022/11/05 07:21:25;;;;;;;9.23;5.53;;;;;;;;;;5093712;28;20397;-72
2022/11/05 07:23:51;;;;;;;11.52;5.28;;;;;;;;;;5111655;28;20066;-72
2022/11/05 07:26:17;;;;;;;12.82;5.43;;;;;;;;;;5111235;28;20036;-73
2022/11/05 07:28:43;;;;;;;12.73;5.43;;;;;;;;;;5108524;28;20169;-72
2022/11/05 07:31:09;;;;;;;14.50;5.28;;;;;;;;;;5105814;28;20158;-72
2022/11/05 07:33:35;;;;;;;13.15;5.40;;;;;;;;;;5112960;28;20043;-73
2022/11/05 07:36:01;;;;;;;10.93;5.30;;;;;;;;;;5094503;28;20100;-72
2022/11/05 07:38:27;;;;;;;10.95;5.28;;;;;;;;;;5095748;28;20058;-73
2022/11/05 07:40:53;;;;;;;10.13;4.78;;;;;;;;;;5112863;28;20047;-72
2022/11/05 07:43:19;;;;;;;14.98;5.13;;;;;;;;;;5114385;28;20047;-72
2022/11/05 07:45:46;;;;;;;9.30;4.60;;;;;;;;;;5112796;28;20108;-72
2022/11/05 07:48:12;;;;;;;9.40;4.20;;;;;;;;;;5108252;28;20446;-72
2022/11/05 07:50:38;;;;;;;10.77;4.50;;;;;;;;;;5113510;28;20409;-72
2022/11/05 07:53:09;;;;;;;10.52;4.93;;;;;;;;;;5113799;28;20051;-72
2022/11/05 07:55:36;;;;;;;10.40;4.65;;;;;;;;;;5113819;28;20046;-72
2022/11/05 07:58:02;;;;;;;11.50;4.70;;;;;;;;;;5094606;28;20086;-73
2022/11/05 08:00:28;;;;;;;11.00;4.65;;;;;;;;;;5111957;28;20454;-72
2022/11/05 08:02:57;;;;;;;10.32;5.00;;;;;;;;;;5094544;28;20099;-72
2022/11/05 08:05:24;;;;;;;10.00;4.47;;;;;;;;;;5112969;28;20051;-73
2022/11/05 08:07:50;;;;;;;11.77;4.78;;;;;;;;;;5113307;28;20058;-72
2022/11/05 08:10:16;;;;;;;11.98;5.05;;;;;;;;;;5112996;28;20066;-73
2022/11/05 08:12:42;;;;;;;9.85;4.90;;;;;;;;;;5111704;28;20051;-71
2022/11/05 08:15:08;;;;;;;8.75;4.63;;;;;;;;;;5094754;28;20100;-70
2022/11/05 08:17:35;;;;;;;7.30;4.45;;;;;;;;;;5113007;28;20507;-71
2022/11/05 08:20:01;;;;;;;10.07;4.95;;;;;;;;;;5110474;28;20052;-72
2022/11/05 08:22:27;;;;;;;13.88;5.47;;;;;;;;;;5109876;28;20044;-72
2022/11/05 08:24:53;;;;;;;10.25;5.13;;;;;;;;;;5104397;28;20052;-71
2022/11/05 08:27:19;;;;;;;11.77;5.63;;;;;;;;;;5111924;28;20382;-72
2022/11/05 08:29:45;;;;;;;10.40;5.03;;;;;;;;;;5094139;28;20070;-71
2022/11/05 08:32:11;;;;;;;12.27;5.38;;;;;;;;;;5110204;28;20401;-71
2022/11/05 08:34:37;;;;;;;12.02;5.90;;;;;;;;;;5112123;28;20104;-71
2022/11/05 08:37:03;;;;;;;11.43;5.05;;;;;;;;;;5112915;28;20051;-72
2022/11/05 08:39:29;;;;;;;8.52;4.82;;;;;;;;;;5097713;28;20123;-72
2022/11/05 08:41:55;;;;;;;8.73;4.90;;;;;;;;;;5107816;28;20047;-73
2022/11/05 08:44:22;;;;;;;11.05;5.22;;;;;;;;;;5112093;28;20059;-71
2022/11/05 08:46:48;;;;;;;11.93;5.15;;;;;;;;;;5111864;28;20039;-71
2022/11/05 08:49:14;;;;;;;8.02;4.68;;;;;;;;;;5094545;28;20126;-72
2022/11/05 08:51:45;;;;;;;10.23;4.75;;;;;;;;;;5111949;28;20044;-72
2022/11/05 08:54:11;;;;;;;9.27;4.97;;;;;;;;;;5111374;28;20359;-72
2022/11/05 08:56:37;;;;;;;9.18;4.40;;;;;;;;;;5091939;28;20047;-72
2022/11/05 08:59:03;;;;;;;11.48;5.20;;;;;;;;;;5112437;28;20505;-72
2022/11/05 09:01:29;;;;;;;9.13;4.40;;;;;;;;;;5092464;28;20047;-73
2022/11/05 09:03:55;;;;;;;7.50;4.28;;;;;;;;;;5112115;28;20051;-71
2022/11/05 09:06:21;;;;;;;9.20;4.18;;;;;;;;;;5112789;28;20127;-73
2022/11/05 09:08:47;;;;;;;12.68;5.00;;;;;;;;;;5112328;28;20062;-72
2022/11/05 09:11:13;;;;;;;7.78;4.50;;;;;;;;;;5094867;28;20048;-73
2022/11/05 09:13:39;;;;;;;7.80;4.70;;;;;;;;;;5110090;28;20074;-73
2022/11/05 09:16:05;;;;;;;8.52;4.60;;;;;;;;;;5107406;28;20091;-72
2022/11/05 09:18:32;;;;;;;9.70;4.68;;;;;;;;;;5112947;28;20048;-72
2022/11/05 09:20:58;;;;;;;9.32;4.75;;;;;;;;;;5113075;28;20043;-72
2022/11/05 09:23:24;;;;;;;9.00;4.80;;;;;;;;;;5093647;28;20542;-73
2022/11/05 09:25:51;;;;;;;9.73;5.50;;;;;;;;;;5109738;28;20054;-72
2022/11/05 09:28:19;;;;;;;10.95;4.95;;;;;;;;;;5111601;28;20051;-73
2022/11/05 09:30:51;;;;;;;10.52;5.28;;;;;;;;;;5104888;28;20054;-73
2022/11/05 09:33:18;;;;;;;9.35;4.68;;;;;;;;;;5111479;28;20556;-73
2022/11/05 09:35:45;;;;;;;8.73;5.15;;;;;;;;;;5093019;28;20051;-73
2022/11/05 09:38:11;;;;;;;10.15;5.15;;;;;;;;;;5111922;28;20510;-73
2022/11/05 09:40:52;;;;;;;12.55;4.90;;;;;;;;;;5113177;28;20052;-73
2022/11/05 09:43:20;;;;;;;11.20;4.90;;;;;;;;;;5116435;28;20443;-72
2022/11/05 09:45:49;;;;;;;11.30;4.43;;;;;;;;;;5114028;28;20159;-72
2022/11/05 09:48:17;;;;;;;9.50;4.32;;;;;;;;;;5116098;28;20188;-73
2022/11/05 09:50:45;;;;;;;9.68;4.70;;;;;;;;;;5115680;28;20123;-72
2022/11/05 09:53:15;;;;;;;11.10;4.55;;;;;;;;;;5116216;28;20112;-73
2022/11/05 09:55:43;;;;;;;9.95;4.85;;;;;;;;;;5115187;28;20459;-72
2022/11/05 09:58:27;;;;;;;9.30;4.68;;;;;;;;;;5115819;28;20050;-73
2022/11/05 10:00:53;;;;;;;11.38;4.97;;;;;;;;;;5095519;28;20096;-72
2022/11/05 10:03:21;;;;;;;11.15;4.70;;;;;;;;;;5095508;28;20121;-73
2022/11/05 10:05:49;;;;;;;10.95;4.88;;;;;;;;;;5100203;28;20083;-73
2022/11/05 10:08:30;;;;;;;9.02;4.80;;;;;;;;;;5097995;28;20087;-73
2022/11/05 10:11:03;;;;;;;7.22;4.00;;;;;;;;;;5107776;28;20166;-71
2022/11/05 10:13:32;;;;;;;9.68;4.80;;;;;;;;;;5115709;28;20051;-72
2022/11/05 10:15:58;;;;;;;11.73;4.35;;;;;;;;;;5113863;28;20043;-72
2022/11/05 10:18:30;;;;;;;9.18;4.32;;;;;;;;;;5113617;28;20055;-72
2022/11/05 10:20:57;;;;;;;10.45;4.30;;;;;;;;;;5101327;28;20040;-72
2022/11/05 10:23:23;;;;;;;8.10;3.95;;;;;;;;;;5105985;28;20351;-72
2022/11/05 10:26:04;;;;;;;11.80;4.25;;;;;;;;;;5103669;28;20104;-72
2022/11/05 10:28:32;;;;;;;8.75;4.35;;;;;;;;;;5095209;28;20052;-73
2022/11/05 10:31:00;;;;;;;9.80;4.45;;;;;;;;;;5100637;28;20516;-72
2022/11/05 10:33:38;;;;;;;9.57;4.40;;;;;;;;;;5096280;28;20171;-71
2022/11/05 10:36:07;;;;;;;7.57;3.88;;;;;;;;;;5109808;28;20114;-72
2022/11/05 10:38:33;;;;;;;7.47;4.00;;;;;;;;;;5109320;28;20146;-72
2022/11/05 10:41:06;;;;;;;11.20;4.60;;;;;;;;;;5113055;28;20055;-72
2022/11/05 10:43:35;;;;;;;9.27;4.47;;;;;;;;;;5113145;28;20092;-72
2022/11/05 10:46:14;;;;;;;10.07;4.07;;;;;;;;;;5113611;28;20131;-73
2022/11/05 10:48:40;;;;;;;11.38;3.63;;;;;;;;;;5110920;28;20043;-72
2022/11/05 10:51:06;;;;;;;9.50;3.45;;;;;;;;;;5113198;28;20044;-72
2022/11/05 10:53:34;;;;;;;10.27;3.40;;;;;;;;;;5095762;28;20104;-72
2022/11/05 10:56:00;;;;;;;8.18;3.85;;;;;;;;;;5113262;28;20046;-73
2022/11/05 10:58:31;;;;;;;12.57;4.78;;;;;;;;;;5114851;28;20066;-73
2022/11/05 11:00:57;;;;;;;6.40;3.47;;;;;;;;;;5114059;28;20050;-73
2022/11/05 11:03:32;;;;;;;10.77;3.72;;;;;;;;;;5114860;28;20055;-73
2022/11/05 11:06:03;;;;;;;9.80;3.72;;;;;;;;;;5113073;28;20096;-73
2022/11/05 11:08:29;;;;;;;;;;;;;;;;;;5114827;28;20043;-73
2022/11/05 11:10:58;;;;;;;11.48;3.50;;;;;;;;;;5114705;28;19920;-73
2022/11/05 11:13:29;;;;;;;8.27;3.50;;;;;;;;;;5114603;28;20051;-74
2022/11/05 11:16:12;;;;;;;10.85;3.10;;;;;;;;;;5114052;28;20040;-73
2022/11/05 11:18:40;;;;;;;7.18;3.15;;;;;;;;;;5114272;28;20394;-73
2022/11/05 11:21:15;;;;;;;8.65;3.40;;;;;;;;;;5095031;28;20119;-74
2022/11/05 11:23:42;;;;;;;10.35;4.05;;;;;;;;;;5111314;28;20429;-70
2022/11/05 11:26:09;;;;;;;9.35;3.50;;;;;;;;;;5101415;28;20040;-71
2022/11/05 11:28:40;;;;;;;8.98;3.47;;;;;;;;;;5097157;28;20040;-72
2022/11/05 11:31:12;;;;;;;8.68;3.70;;;;;;;;;;5110511;28;20542;-72
2022/11/05 11:33:38;;;;;;;10.70;3.92;;;;;;;;;;5109697;28;20498;-72
2022/11/05 11:36:05;;;;;;;7.28;3.22;;;;;;;;;;5094854;28;20039;-72
2022/11/05 11:38:32;;;;;;;9.65;4.15;;;;;;;;;;5114083;28;20043;-72
2022/11/05 11:41:18;;;;;;;7.43;3.58;;;;;;;;;;5079034;28;20040;-72
2022/11/05 11:43:45;;;;;;;7.32;3.40;;;;;;;;;;5078466;28;20074;-72
2022/11/05 11:46:18;;;;;;;8.35;3.30;;;;;;;;;;5112772;28;20043;-72
2022/11/05 11:48:46;;;;;;;8.05;3.22;;;;;;;;;;5113929;28;20054;-72
2022/11/05 11:51:29;;;;;;;9.68;3.53;;;;;;;;;;5075325;28;20056;-73
2022/11/05 11:53:59;;;;;;;9.07;3.08;;;;;;;;;;5093735;28;20123;-74
2022/11/05 11:56:26;;;;;;;9.02;2.50;;;;;;;;;;5093490;28;20048;-73
2022/11/05 11:58:55;;;;;;;8.82;2.83;;;;;;;;;;5099427;28;20096;-73
2022/11/05 12:01:43;;;;;;;9.23;2.75;;;;;;;;;;5112321;28;20048;-72
2022/11/05 12:04:12;;;;;;;8.98;2.78;;;;;;;;;;5111555;28;20063;-73
2022/11/05 12:06:55;;;;;;;10.38;3.15;;;;;;;;;;5104435;28;20121;-73
2022/11/05 12:09:33;;;;;;;10.80;3.08;;;;;;;;;;5112367;28;20047;-73
2022/11/05 12:12:02;;;;;;;8.23;3.17;;;;;;;;;;5110908;28;20083;-72
2022/11/05 12:14:48;;;;;;;8.00;2.70;;;;;;;;;;5112915;28;20078;-72
2022/11/05 12:17:40;;;;;;;9.48;2.92;;;;;;;;;;5094819;28;20176;-73
2022/11/05 12:20:16;;;;;;;8.90;3.30;;;;;;;;;;5109033;28;20043;-72
2022/11/05 12:22:45;;;;;;;10.48;3.17;;;;;;;;;;5112293;28;20126;-73
2022/11/05 12:25:14;;;;;;;9.00;3.47;;;;;;;;;;5092843;28;20046;-73
2022/11/05 12:27:46;;;;;;;7.88;3.20;;;;;;;;;;5081365;28;20103;-72
2022/11/05 12:30:17;;;;;;;6.53;3.08;;;;;;;;;;5112996;28;20507;-73
2022/11/05 12:32:48;;;;;;;12.17;3.50;;;;;;;;;;5112280;28;20051;-73
2022/11/05 12:35:14;;;;;;;;;;;;;;;;;;5112511;28;20497;-73
2022/11/05 12:37:49;;;;;;;9.50;3.50;;;;;;;;;;5091014;28;19919;-72
2022/11/05 12:40:25;;;;;;;9.93;3.70;;;;;;;;;;5077311;28;20524;-72
2022/11/05 12:42:54;;;;;;;8.70;3.70;;;;;;;;;;5111554;28;20054;-72
2022/11/05 12:45:29;;;;;;;9.80;4.10;;;;;;;;;;5111733;28;20120;-72
2022/11/05 12:48:00;;;;;;;8.13;4.07;;;;;;;;;;5091700;28;20530;-72
2022/11/05 12:50:45;;;;;;;7.95;4.18;;;;;;;;;;5076282;28;20097;-73
2022/11/05 12:53:29;;;;;;;9.50;4.18;;;;;;;;;;5111037;28;20408;-73
2022/11/05 12:55:58;;;;;;;14.45;5.13;;;;;;;;;;5110965;28;20070;-74
2022/11/05 12:58:45;;;;;;;9.80;4.45;;;;;;;;;;5100233;28;20493;-73
2022/11/05 13:01:14;;;;;;;11.10;5.03;;;;;;;;;;5097918;28;20097;-73
2022/11/05 13:03:42;;;;;;;10.48;4.43;;;;;;;;;;5104161;28;20119;-72
2022/11/05 13:06:27;;;;;;;11.88;4.70;;;;;;;;;;5091841;28;20040;-73
2022/11/05 13:08:56;;;;;;;10.27;4.90;;;;;;;;;;5099905;28;20070;-72
2022/11/05 13:11:26;;;;;;;9.90;4.75;;;;;;;;;;5103303;28;20099;-73
2022/11/05 13:14:11;;;;;;;9.15;4.70;;;;;;;;;;5102198;28;20068;-73
2022/11/05 13:16:38;;;;;;;11.52;4.80;;;;;;;;;;5102720;28;20044;-72
2022/11/05 13:19:19;;;;;;;8.10;4.10;;;;;;;;;;5104889;28;20043;-72
2022/11/05 13:21:45;;;;;;;;;;;;;;;;;;5110613;28;20052;-72
2022/11/05 13:24:20;;;;;;;11.05;4.47;;;;;;;;;;5109664;28;19920;-73
2022/11/05 13:26:49;;;;;;;11.43;4.50;;;;;;;;;;5110652;28;20486;-73
2022/11/05 13:29:21;;;;;;;11.85;4.28;;;;;;;;;;5108084;28;20040;-72
2022/11/05 13:31:56;;;;;;;9.68;3.97;;;;;;;;;;5108133;28;20048;-73
2022/11/05 13:34:22;;;;;;;9.77;3.97;;;;;;;;;;5111611;28;20039;-73
2022/11/05 13:39:40;;;;;;;10.80;4.10;;;;;;;;;;5110968;28;20075;-72
2022/11/05 13:42:06;;;;;;;9.48;4.03;;;;;;;;;;5111048;28;20055;-73
2022/11/05 13:44:38;;;;;;;9.23;4.07;;;;;;;;;;5111747;28;20047;-73
2022/11/05 13:47:07;;;;;;;9.57;3.90;;;;;;;;;;5090294;28;20044;-73
2022/11/05 13:49:48;;;;;;;11.82;4.18;;;;;;;;;;5092072;28;20476;-73
2022/11/05 13:52:33;;;;;;;11.27;4.30;;;;;;;;;;5100364;28;20043;-72
2022/11/05 13:55:11;;;;;;;9.80;4.70;;;;;;;;;;5111434;28;20139;-72
2022/11/05 13:57:56;;;;;;;10.75;4.30;;;;;;;;;;5112110;28;20046;-73
2022/11/05 14:00:23;;;;;;;9.55;4.32;;;;;;;;;;5093029;28;20055;-73
2022/11/05 14:02:54;;;;;;;9.98;4.10;;;;;;;;;;5110996;28;20040;-73
2022/11/05 14:05:20;;;;;;;;;;;;;;;;;;5112475;28;20051;-73
2022/11/05 14:07:46;;;;;;;10.52;4.75;;;;;;;;;;5093413;28;19919;-73
2022/11/05 14:10:15;;;;;;;12.90;5.00;;;;;;;;;;5112024;28;20036;-73
2022/11/05 14:12:46;;;;;;;11.15;4.93;;;;;;;;;;5111132;28;20092;-72
2022/11/05 14:15:23;;;;;;;10.20;4.47;;;;;;;;;;5110615;28;20043;-73
2022/11/05 14:17:54;;;;;;;10.02;4.85;;;;;;;;;;5111519;28;20075;-73
2022/11/05 14:20:29;;;;;;;11.35;4.70;;;;;;;;;;5111874;28;20130;-72
2022/11/05 14:23:14;;;;;;;10.98;4.55;;;;;;;;;;5109199;28;20040;-73
2022/11/05 14:25:40;;;;;;;11.52;5.03;;;;;;;;;;5110399;28;20447;-73
2022/11/05 14:28:27;;;;;;;11.73;5.10;;;;;;;;;;5114527;28;20100;-73
2022/11/05 14:30:53;;;;;;;15.00;5.50;;;;;;;;;;5101319;28;20136;-73
2022/11/05 14:33:25;;;;;;;11.68;5.20;;;;;;;;;;5114507;28;20118;-72
2022/11/05 14:35:51;;;;;;;9.43;5.40;;;;;;;;;;5114922;28;20126;-73
2022/11/05 14:38:19;;;;;;;13.25;5.80;;;;;;;;;;5115100;28;20075;-72
2022/11/05 14:40:46;;;;;;;10.68;5.45;;;;;;;;;;5096472;28;20076;-73
2022/11/05 14:43:20;;;;;;;16.60;14.68;;;;;;;;;;5088134;28;20043;-72
2022/11/05 14:45:59;;;;;;;14.02;9.30;;;;;;;;;;5115216;28;20039;-73
2022/11/05 14:48:40;;;;;;;13.05;6.32;;;;;;;;;;5096607;28;20040;-73
2022/11/05 14:51:29;;;;;;;12.38;5.57;;;;;;;;;;5115306;28;20059;-72
2022/11/05 14:54:13;;;;;;;14.07;5.88;;;;;;;;;;5102429;28;20047;-72
2022/11/05 14:56:44;;;;;;;12.98;5.53;;;;;;;;;;5115076;28;20104;-72
2022/11/05 14:59:30;;;;;;;11.95;5.75;;;;;;;;;;5114786;28;20127;-73
2022/11/05 15:02:05;;;;;;;12.18;5.30;;;;;;;;;;5096387;28;20056;-72
2022/11/05 15:04:32;;;;;;;12.15;5.70;;;;;;;;;;5114099;28;20118;-73
2022/11/05 15:07:01;;;;;;;13.50;6.25;;;;;;;;;;5113977;28;20167;-72
2022/11/05 15:09:39;;;;;;;12.30;6.13;;;;;;;;;;5104096;28;20149;-73
2022/11/05 15:12:29;;;;;;;12.63;6.25;;;;;;;;;;5114431;28;20378;-73
2022/11/05 15:14:59;;;;;;;11.70;6.68;;;;;;;;;;5094169;28;20044;-72
2022/11/05 15:17:28;;;;;;;11.02;6.22;;;;;;;;;;5098653;28;20099;-73
2022/11/05 15:19:58;;;;;;;11.65;5.82;;;;;;;;;;5112893;28;20143;-72
2022/11/05 15:22:32;;;;;;;13.30;6.15;;;;;;;;;;5113746;28;20393;-73
2022/11/05 15:24:58;;;;;;;12.45;6.10;;;;;;;;;;5113374;28;20489;-72
2022/11/05 15:27:24;;;;;;;12.18;6.00;;;;;;;;;;5114269;28;20039;-73
2022/11/05 15:29:50;;;;;;;14.40;6.40;;;;;;;;;;5095751;28;20039;-74
2022/11/05 15:32:17;;;;;;;12.02;7.45;;;;;;;;;;5106035;28;20031;-74